sensor_id;sensor_type;location;lat;lon;timestamp;temperature;humidity
33741;DHT22;20065;48.380;10.892;2023-02-19T00:01:47;10.70;99.90
33741;DHT22;20065;48.380;10.892;2023-02-19T00:04:35;10.70;99.90
33741;DHT22;20065;48.380;10.892;2023-02-19T00:07:22;10.60;99.90
33741;DHT22;20065;48.380;10.892;2023-02-19T00:10:08;10.70;99.90
33741;DHT22;20065;48.380;10.892;2023-02-19T00:12:54;10.70;99.90
33741;DHT22;20065;48.380;10.892;2023-02-19T00:15:40;10.70;99.90
33741;DHT22;20065;48.380;10.892;2023-02-19T00:18:26;10.60;99.90
33741;DHT22;20065;48.380;10.892;2023-02-19T00:21:13;10.60;99.90
33741;DHT22;20065;48.380;10.892;2023-02-19T00:24:03;10.60;99.90
33741;DHT22;20065;48.380;10.892;2023-02-19T00:26:50;10.60;99.90
33741;DHT22;20065;48.380;10.892;2023-02-19T00:29:36;10.50;99.90
33741;DHT22;20065;48.380;10.892;2023-02-19T00:32:22;10.60;99.90
33741;DHT22;20065;48.380;10.892;2023-02-19T00:35:09;10.50;99.90
33741;DHT22;20065;48.380;10.892;2023-02-19T00:37:55;10.50;99.90
33741;DHT22;20065;48.380;10.892;2023-02-19T00:40:41;10.50;99.90
33741;DHT22;20065;48.380;10.892;2023-02-19T00:43:27;10.60;99.90
33741;DHT22;20065;48.380;10.892;2023-02-19T00:46:19;10.60;99.90
33741;DHT22;20065;48.380;10.892;2023-02-19T00:49:07;10.60;99.90
33741;DHT22;20065;48.380;10.892;2023-02-19T00:51:53;10.50;99.90
33741;DHT22;20065;48.380;10.892;2023-02-19T00:54:40;10.50;99.90
33741;DHT22;20065;48.380;10.892;2023-02-19T00:57:26;10.60;99.90
33741;DHT22;20065;48.380;10.892;2023-02-19T01:00:34;10.60;99.90
33741;DHT22;20065;48.380;10.892;2023-02-19T01:03:33;10.70;99.90
33741;DHT22;20065;48.380;10.892;2023-02-19T01:06:20;10.60;99.90
33741;DHT22;20065;48.380;10.892;2023-02-19T01:09:07;10.60;99.90
33741;DHT22;20065;48.380;10.892;2023-02-19T01:11:54;10.50;99.90
33741;DHT22;20065;48.380;10.892;2023-02-19T01:14:41;10.50;99.90
33741;DHT22;20065;48.380;10.892;2023-02-19T01:17:27;10.50;99.90
33741;DHT22;20065;48.380;10.892;2023-02-19T01:20:13;10.50;99.90
33741;DHT22;20065;48.380;10.892;2023-02-19T01:22:59;10.40;99.90
33741;DHT22;20065;48.380;10.892;2023-02-19T01:25:46;10.50;99.90
33741;DHT22;20065;48.380;10.892;2023-02-19T01:28:32;10.50;99.90
33741;DHT22;20065;48.380;10.892;2023-02-19T01:31:21;10.50;99.90
33741;DHT22;20065;48.380;10.892;2023-02-19T01:34:09;10.50;99.90
33741;DHT22;20065;48.380;10.892;2023-02-19T01:36:57;10.50;99.90
33741;DHT22;20065;48.380;10.892;2023-02-19T01:39:43;10.60;99.90
33741;DHT22;20065;48.380;10.892;2023-02-19T01:42:29;10.50;99.90
33741;DHT22;20065;48.380;10.892;2023-02-19T01:45:32;10.60;99.90
33741;DHT22;20065;48.380;10.892;2023-02-19T01:51:09;10.60;99.90
33741;DHT22;20065;48.380;10.892;2023-02-19T01:53:58;10.60;99.90
33741;DHT22;20065;48.380;10.892;2023-02-19T01:56:48;10.50;99.90
33741;DHT22;20065;48.380;10.892;2023-02-19T01:59:34;10.60;99.90
33741;DHT22;20065;48.380;10.892;2023-02-19T02:02:21;10.60;99.90
33741;DHT22;20065;48.380;10.892;2023-02-19T02:05:18;10.60;99.90
33741;DHT22;20065;48.380;10.892;2023-02-19T02:08:07;10.60;99.90
33741;DHT22;20065;48.380;10.892;2023-02-19T02:11:13;10.60;99.90
33741;DHT22;20065;48.380;10.892;2023-02-19T02:13:59;10.60;99.90
33741;DHT22;20065;48.380;10.892;2023-02-19T02:23:04;10.10;99.90
33741;DHT22;20065;48.380;10.892;2023-02-19T02:32:10;10.20;99.90
33741;DHT22;20065;48.380;10.892;2023-02-19T02:35:03;10.20;99.90
33741;DHT22;20065;48.380;10.892;2023-02-19T02:37:52;10.20;99.90
33741;DHT22;20065;48.380;10.892;2023-02-19T02:40:42;10.20;99.90
33741;DHT22;20065;48.380;10.892;2023-02-19T02:43:31;10.10;99.90
33741;DHT22;20065;48.380;10.892;2023-02-19T02:46:29;10.10;99.90
33741;DHT22;20065;48.380;10.892;2023-02-19T02:49:21;10.10;99.90
33741;DHT22;20065;48.380;10.892;2023-02-19T02:52:10;10.10;99.90
33741;DHT22;20065;48.380;10.892;2023-02-19T02:55:16;10.10;99.90
33741;DHT22;20065;48.380;10.892;2023-02-19T02:58:03;10.00;99.90
33741;DHT22;20065;48.380;10.892;2023-02-19T03:00:58;9.70;99.90
33741;DHT22;20065;48.380;10.892;2023-02-19T03:04:08;9.60;99.90
33741;DHT22;20065;48.380;10.892;2023-02-19T03:06:57;9.50;99.90
33741;DHT22;20065;48.380;10.892;2023-02-19T03:09:44;9.40;99.90
33741;DHT22;20065;48.380;10.892;2023-02-19T03:12:32;9.20;99.90
33741;DHT22;20065;48.380;10.892;2023-02-19T03:15:46;9.20;99.90
33741;DHT22;20065;48.380;10.892;2023-02-19T03:18:58;9.10;99.90
33741;DHT22;20065;48.380;10.892;2023-02-19T03:22:09;9.10;99.90
33741;DHT22;20065;48.380;10.892;2023-02-19T03:25:00;9.00;99.90
33741;DHT22;20065;48.380;10.892;2023-02-19T03:28:08;9.00;99.90
33741;DHT22;20065;48.380;10.892;2023-02-19T03:30:56;8.90;99.90
33741;DHT22;20065;48.380;10.892;2023-02-19T03:33:45;8.90;99.90
33741;DHT22;20065;48.380;10.892;2023-02-19T03:36:41;8.80;99.90
33741;DHT22;20065;48.380;10.892;2023-02-19T03:39:29;8.80;99.90
33741;DHT22;20065;48.380;10.892;2023-02-19T03:45:44;8.80;99.90
33741;DHT22;20065;48.380;10.892;2023-02-19T03:48:34;8.90;99.90
33741;DHT22;20065;48.380;10.892;2023-02-19T03:51:25;8.90;99.90
33741;DHT22;20065;48.380;10.892;2023-02-19T03:54:31;8.90;99.90
33741;DHT22;20065;48.380;10.892;2023-02-19T04:03:32;8.90;99.90
33741;DHT22;20065;48.380;10.892;2023-02-19T04:06:29;8.80;99.90
33741;DHT22;20065;48.380;10.892;2023-02-19T04:09:18;8.80;99.90
33741;DHT22;20065;48.380;10.892;2023-02-19T04:12:10;8.80;99.90
33741;DHT22;20065;48.380;10.892;2023-02-19T04:15:01;8.80;99.90
33741;DHT22;20065;48.380;10.892;2023-02-19T04:18:12;8.80;99.90
33741;DHT22;20065;48.380;10.892;2023-02-19T04:21:01;8.80;99.90
33741;DHT22;20065;48.380;10.892;2023-02-19T04:23:48;8.80;99.90
33741;DHT22;20065;48.380;10.892;2023-02-19T04:26:35;8.80;99.90
33741;DHT22;20065;48.380;10.892;2023-02-19T04:29:21;8.80;99.90
33741;DHT22;20065;48.380;10.892;2023-02-19T04:32:12;8.80;99.90
33741;DHT22;20065;48.380;10.892;2023-02-19T04:34:58;8.80;99.90
33741;DHT22;20065;48.380;10.892;2023-02-19T04:37:44;8.90;99.90
33741;DHT22;20065;48.380;10.892;2023-02-19T04:40:30;8.80;99.90
33741;DHT22;20065;48.380;10.892;2023-02-19T04:43:17;8.80;99.90
33741;DHT22;20065;48.380;10.892;2023-02-19T04:46:03;8.80;99.90
33741;DHT22;20065;48.380;10.892;2023-02-19T04:48:49;8.90;99.90
33741;DHT22;20065;48.380;10.892;2023-02-19T04:51:36;8.90;99.90
33741;DHT22;20065;48.380;10.892;2023-02-19T04:54:23;8.90;99.90
33741;DHT22;20065;48.380;10.892;2023-02-19T04:57:09;8.90;99.90
33741;DHT22;20065;48.380;10.892;2023-02-19T04:59:55;8.90;99.90
33741;DHT22;20065;48.380;10.892;2023-02-19T05:02:41;8.90;99.90
33741;DHT22;20065;48.380;10.892;2023-02-19T05:05:28;8.80;99.90
33741;DHT22;20065;48.380;10.892;2023-02-19T05:08:14;8.90;99.90
33741;DHT22;20065;48.380;10.892;2023-02-19T05:11:01;8.80;99.90
33741;DHT22;20065;48.380;10.892;2023-02-19T05:13:48;8.80;99.90
33741;DHT22;20065;48.380;10.892;2023-02-19T05:16:35;8.90;99.90
33741;DHT22;20065;48.380;10.892;2023-02-19T05:19:21;8.90;99.90
33741;DHT22;20065;48.380;10.892;2023-02-19T05:22:07;8.90;99.90
33741;DHT22;20065;48.380;10.892;2023-02-19T05:24:53;8.90;99.90
33741;DHT22;20065;48.380;10.892;2023-02-19T05:27:39;8.90;99.90
33741;DHT22;20065;48.380;10.892;2023-02-19T05:30:26;8.90;99.90
33741;DHT22;20065;48.380;10.892;2023-02-19T05:33:12;8.90;99.90
33741;DHT22;20065;48.380;10.892;2023-02-19T05:36:02;8.90;99.90
33741;DHT22;20065;48.380;10.892;2023-02-19T05:38:55;8.90;99.90
33741;DHT22;20065;48.380;10.892;2023-02-19T05:41:42;8.90;99.90
33741;DHT22;20065;48.380;10.892;2023-02-19T05:44:28;8.80;99.90
33741;DHT22;20065;48.380;10.892;2023-02-19T05:47:14;8.90;99.90
33741;DHT22;20065;48.380;10.892;2023-02-19T05:50:00;8.90;99.90
33741;DHT22;20065;48.380;10.892;2023-02-19T05:52:47;8.80;99.90
33741;DHT22;20065;48.380;10.892;2023-02-19T05:55:34;8.80;99.90
33741;DHT22;20065;48.380;10.892;2023-02-19T05:58:21;8.90;99.90
33741;DHT22;20065;48.380;10.892;2023-02-19T06:01:16;8.90;99.90
33741;DHT22;20065;48.380;10.892;2023-02-19T06:04:03;8.90;99.90
33741;DHT22;20065;48.380;10.892;2023-02-19T06:06:49;8.80;99.90
33741;DHT22;20065;48.380;10.892;2023-02-19T06:09:35;8.90;99.90
33741;DHT22;20065;48.380;10.892;2023-02-19T06:12:21;8.80;99.90
33741;DHT22;20065;48.380;10.892;2023-02-19T06:15:08;8.80;99.90
33741;DHT22;20065;48.380;10.892;2023-02-19T06:17:54;8.70;99.90
33741;DHT22;20065;48.380;10.892;2023-02-19T06:20:40;8.60;99.90
33741;DHT22;20065;48.380;10.892;2023-02-19T06:23:27;8.50;99.90
33741;DHT22;20065;48.380;10.892;2023-02-19T06:26:20;8.50;99.90
33741;DHT22;20065;48.380;10.892;2023-02-19T06:29:07;8.50;99.90
33741;DHT22;20065;48.380;10.892;2023-02-19T06:31:53;8.50;99.90
33741;DHT22;20065;48.380;10.892;2023-02-19T06:34:39;8.40;99.90
33741;DHT22;20065;48.380;10.892;2023-02-19T06:37:25;8.40;99.90
33741;DHT22;20065;48.380;10.892;2023-02-19T06:40:11;8.40;99.90
33741;DHT22;20065;48.380;10.892;2023-02-19T06:42:57;8.30;99.90
33741;DHT22;20065;48.380;10.892;2023-02-19T06:45:45;8.20;99.90
33741;DHT22;20065;48.380;10.892;2023-02-19T06:48:32;8.10;99.90
33741;DHT22;20065;48.380;10.892;2023-02-19T06:51:18;8.00;99.90
33741;DHT22;20065;48.380;10.892;2023-02-19T06:54:08;7.90;99.90
33741;DHT22;20065;48.380;10.892;2023-02-19T06:56:54;7.90;99.90
33741;DHT22;20065;48.380;10.892;2023-02-19T06:59:44;7.90;99.90
33741;DHT22;20065;48.380;10.892;2023-02-19T07:02:31;7.90;99.90
33741;DHT22;20065;48.380;10.892;2023-02-19T07:05:17;7.80;99.90
33741;DHT22;20065;48.380;10.892;2023-02-19T07:08:03;7.80;99.90
33741;DHT22;20065;48.380;10.892;2023-02-19T07:10:54;7.70;99.90
33741;DHT22;20065;48.380;10.892;2023-02-19T07:13:41;7.70;99.90
33741;DHT22;20065;48.380;10.892;2023-02-19T07:16:27;7.80;99.90
33741;DHT22;20065;48.380;10.892;2023-02-19T07:19:14;7.90;99.90
33741;DHT22;20065;48.380;10.892;2023-02-19T07:22:00;7.90;99.90
33741;DHT22;20065;48.380;10.892;2023-02-19T07:24:47;7.90;99.90
33741;DHT22;20065;48.380;10.892;2023-02-19T07:27:33;7.80;99.90
33741;DHT22;20065;48.380;10.892;2023-02-19T07:30:19;7.90;99.90
33741;DHT22;20065;48.380;10.892;2023-02-19T07:33:05;7.90;99.90
33741;DHT22;20065;48.380;10.892;2023-02-19T07:35:51;7.90;99.90
33741;DHT22;20065;48.380;10.892;2023-02-19T07:38:38;7.90;99.90
33741;DHT22;20065;48.380;10.892;2023-02-19T07:41:25;7.90;99.90
33741;DHT22;20065;48.380;10.892;2023-02-19T07:44:15;7.80;99.90
33741;DHT22;20065;48.380;10.892;2023-02-19T07:47:01;7.80;99.90
33741;DHT22;20065;48.380;10.892;2023-02-19T07:49:47;7.80;99.90
33741;DHT22;20065;48.380;10.892;2023-02-19T07:52:34;7.90;99.90
33741;DHT22;20065;48.380;10.892;2023-02-19T07:55:20;7.90;99.90
33741;DHT22;20065;48.380;10.892;2023-02-19T07:58:06;8.00;99.90
33741;DHT22;20065;48.380;10.892;2023-02-19T08:00:52;7.90;99.90
33741;DHT22;20065;48.380;10.892;2023-02-19T08:03:38;8.00;99.90
33741;DHT22;20065;48.380;10.892;2023-02-19T08:06:24;8.10;99.90
33741;DHT22;20065;48.380;10.892;2023-02-19T08:09:11;8.10;99.90
33741;DHT22;20065;48.380;10.892;2023-02-19T08:11:57;8.20;99.90
33741;DHT22;20065;48.380;10.892;2023-02-19T08:15:01;8.30;99.90
33741;DHT22;20065;48.380;10.892;2023-02-19T08:17:49;8.30;99.90
33741;DHT22;20065;48.380;10.892;2023-02-19T08:20:35;8.30;99.90
33741;DHT22;20065;48.380;10.892;2023-02-19T08:23:22;8.30;99.90
33741;DHT22;20065;48.380;10.892;2023-02-19T08:26:09;8.30;99.90
33741;DHT22;20065;48.380;10.892;2023-02-19T08:28:55;8.30;99.90
33741;DHT22;20065;48.380;10.892;2023-02-19T08:31:41;8.40;99.90
33741;DHT22;20065;48.380;10.892;2023-02-19T08:34:27;8.60;99.90
33741;DHT22;20065;48.380;10.892;2023-02-19T08:37:14;8.60;99.90
33741;DHT22;20065;48.380;10.892;2023-02-19T08:40:00;8.50;99.90
33741;DHT22;20065;48.380;10.892;2023-02-19T08:42:46;8.60;99.90
33741;DHT22;20065;48.380;10.892;2023-02-19T08:45:32;8.50;99.90
33741;DHT22;20065;48.380;10.892;2023-02-19T08:48:18;8.50;99.90
33741;DHT22;20065;48.380;10.892;2023-02-19T08:51:08;8.50;99.90
33741;DHT22;20065;48.380;10.892;2023-02-19T08:53:54;8.50;99.90
33741;DHT22;20065;48.380;10.892;2023-02-19T08:56:40;8.40;99.90
33741;DHT22;20065;48.380;10.892;2023-02-19T08:59:30;8.40;99.90
33741;DHT22;20065;48.380;10.892;2023-02-19T09:02:17;8.60;99.90
33741;DHT22;20065;48.380;10.892;2023-02-19T09:05:03;8.60;99.90
33741;DHT22;20065;48.380;10.892;2023-02-19T09:07:50;8.50;99.90
33741;DHT22;20065;48.380;10.892;2023-02-19T09:10:36;8.60;99.90
33741;DHT22;20065;48.380;10.892;2023-02-19T09:13:22;8.60;99.90
33741;DHT22;20065;48.380;10.892;2023-02-19T09:16:09;8.60;99.90
33741;DHT22;20065;48.380;10.892;2023-02-19T09:18:56;8.60;99.90
33741;DHT22;20065;48.380;10.892;2023-02-19T09:21:42;9.10;99.90
33741;DHT22;20065;48.380;10.892;2023-02-19T09:24:29;10.20;99.90
33741;DHT22;20065;48.380;10.892;2023-02-19T09:27:21;10.60;99.90
33741;DHT22;20065;48.380;10.892;2023-02-19T09:30:18;11.40;99.90
33741;DHT22;20065;48.380;10.892;2023-02-19T09:33:04;12.20;99.90
33741;DHT22;20065;48.380;10.892;2023-02-19T09:35:51;11.90;99.90
33741;DHT22;20065;48.380;10.892;2023-02-19T09:38:37;11.00;99.90
33741;DHT22;20065;48.380;10.892;2023-02-19T09:41:29;10.50;99.90
33741;DHT22;20065;48.380;10.892;2023-02-19T09:44:47;10.10;99.90
33741;DHT22;20065;48.380;10.892;2023-02-19T09:47:34;9.80;99.90
33741;DHT22;20065;48.380;10.892;2023-02-19T09:50:33;9.70;99.90
33741;DHT22;20065;48.380;10.892;2023-02-19T09:53:23;9.80;99.90
33741;DHT22;20065;48.380;10.892;2023-02-19T09:56:10;9.90;99.90
33741;DHT22;20065;48.380;10.892;2023-02-19T09:58:58;9.90;99.90
33741;DHT22;20065;48.380;10.892;2023-02-19T10:01:48;9.80;99.90
33741;DHT22;20065;48.380;10.892;2023-02-19T10:04:41;9.80;99.90
33741;DHT22;20065;48.380;10.892;2023-02-19T10:07:40;9.70;99.90
33741;DHT22;20065;48.380;10.892;2023-02-19T10:10:33;9.70;99.90
33741;DHT22;20065;48.380;10.892;2023-02-19T10:13:29;9.60;99.90
33741;DHT22;20065;48.380;10.892;2023-02-19T10:16:25;9.60;99.90
33741;DHT22;20065;48.380;10.892;2023-02-19T10:19:12;9.80;99.90
33741;DHT22;20065;48.380;10.892;2023-02-19T10:22:00;9.80;99.90
33741;DHT22;20065;48.380;10.892;2023-02-19T10:24:52;9.90;99.90
33741;DHT22;20065;48.380;10.892;2023-02-19T10:27:39;10.00;99.90
33741;DHT22;20065;48.380;10.892;2023-02-19T10:30:30;10.00;99.90
33741;DHT22;20065;48.380;10.892;2023-02-19T10:33:20;10.10;99.90
33741;DHT22;20065;48.380;10.892;2023-02-19T10:36:09;10.20;99.90
33741;DHT22;20065;48.380;10.892;2023-02-19T10:42:17;10.50;99.90
33741;DHT22;20065;48.380;10.892;2023-02-19T10:45:20;11.60;99.90
33741;DHT22;20065;48.380;10.892;2023-02-19T10:48:31;11.20;99.90
33741;DHT22;20065;48.380;10.892;2023-02-19T10:51:19;10.50;99.90
33741;DHT22;20065;48.380;10.892;2023-02-19T10:54:24;10.30;99.90
33741;DHT22;20065;48.380;10.892;2023-02-19T11:00:22;10.00;99.90
33741;DHT22;20065;48.380;10.892;2023-02-19T11:03:29;10.40;99.90
33741;DHT22;20065;48.380;10.892;2023-02-19T11:06:25;11.00;99.90
33741;DHT22;20065;48.380;10.892;2023-02-19T11:09:32;13.30;99.90
33741;DHT22;20065;48.380;10.892;2023-02-19T11:12:30;14.00;99.90
33741;DHT22;20065;48.380;10.892;2023-02-19T11:15:33;15.50;99.90
33741;DHT22;20065;48.380;10.892;2023-02-19T11:21:24;12.90;99.90
33741;DHT22;20065;48.380;10.892;2023-02-19T11:24:27;11.90;99.90
33741;DHT22;20065;48.380;10.892;2023-02-19T11:27:18;13.10;99.90
33741;DHT22;20065;48.380;10.892;2023-02-19T11:30:31;13.50;99.90
33741;DHT22;20065;48.380;10.892;2023-02-19T11:33:24;12.90;99.90
33741;DHT22;20065;48.380;10.892;2023-02-19T11:39:26;11.80;99.90
33741;DHT22;20065;48.380;10.892;2023-02-19T11:42:48;11.30;99.90
33741;DHT22;20065;48.380;10.892;2023-02-19T11:45:44;10.70;99.90
33741;DHT22;20065;48.380;10.892;2023-02-19T11:48:52;10.20;99.90
33741;DHT22;20065;48.380;10.892;2023-02-19T12:22:41;11.40;99.90
33741;DHT22;20065;48.380;10.892;2023-02-19T12:40:45;11.20;99.90
33741;DHT22;20065;48.380;10.892;2023-02-19T12:43:34;11.30;99.90
33741;DHT22;20065;48.380;10.892;2023-02-19T12:46:45;11.40;99.90
33741;DHT22;20065;48.380;10.892;2023-02-19T12:49:39;11.10;99.90
33741;DHT22;20065;48.380;10.892;2023-02-19T12:52:39;11.10;99.90
33741;DHT22;20065;48.380;10.892;2023-02-19T12:55:30;11.30;99.90
33741;DHT22;20065;48.380;10.892;2023-02-19T12:58:29;11.20;99.90
33741;DHT22;20065;48.380;10.892;2023-02-19T13:01:25;11.10;99.90
33741;DHT22;20065;48.380;10.892;2023-02-19T13:13:22;10.90;99.90
33741;DHT22;20065;48.380;10.892;2023-02-19T13:16:14;10.70;99.90
33741;DHT22;20065;48.380;10.892;2023-02-19T13:19:03;10.80;99.90
33741;DHT22;20065;48.380;10.892;2023-02-19T13:21:58;10.80;99.90
33741;DHT22;20065;48.380;10.892;2023-02-19T13:25:08;10.70;99.90
33741;DHT22;20065;48.380;10.892;2023-02-19T13:28:23;10.90;99.90
33741;DHT22;20065;48.380;10.892;2023-02-19T13:38:00;10.90;99.90
33741;DHT22;20065;48.380;10.892;2023-02-19T13:40:58;10.60;99.90
33741;DHT22;20065;48.380;10.892;2023-02-19T13:43:45;10.50;99.90
33741;DHT22;20065;48.380;10.892;2023-02-19T13:46:42;10.60;99.90
33741;DHT22;20065;48.380;10.892;2023-02-19T13:52:32;11.10;99.90
33741;DHT22;20065;48.380;10.892;2023-02-19T14:07:54;11.60;99.90
33741;DHT22;20065;48.380;10.892;2023-02-19T14:10:57;11.60;99.90
33741;DHT22;20065;48.380;10.892;2023-02-19T14:26:00;11.00;99.90
33741;DHT22;20065;48.380;10.892;2023-02-19T14:28:49;10.70;99.90
33741;DHT22;20065;48.380;10.892;2023-02-19T14:31:37;10.50;99.90
33741;DHT22;20065;48.380;10.892;2023-02-19T14:34:24;10.40;99.90
33741;DHT22;20065;48.380;10.892;2023-02-19T14:37:20;10.50;99.90
33741;DHT22;20065;48.380;10.892;2023-02-19T14:40:17;10.50;99.90
33741;DHT22;20065;48.380;10.892;2023-02-19T14:43:05;10.60;99.90
33741;DHT22;20065;48.380;10.892;2023-02-19T14:48:42;10.60;99.90
33741;DHT22;20065;48.380;10.892;2023-02-19T14:51:38;10.60;99.90
33741;DHT22;20065;48.380;10.892;2023-02-19T14:54:49;10.40;99.90
33741;DHT22;20065;48.380;10.892;2023-02-19T14:57:42;10.40;99.90
33741;DHT22;20065;48.380;10.892;2023-02-19T15:00:37;10.40;99.90
33741;DHT22;20065;48.380;10.892;2023-02-19T15:03:35;10.40;99.90
33741;DHT22;20065;48.380;10.892;2023-02-19T15:06:22;10.40;99.90
33741;DHT22;20065;48.380;10.892;2023-02-19T15:09:11;10.30;99.90
33741;DHT22;20065;48.380;10.892;2023-02-19T15:11:58;10.40;99.90
33741;DHT22;20065;48.380;10.892;2023-02-19T15:14:45;10.30;99.90
33741;DHT22;20065;48.380;10.892;2023-02-19T15:17:34;10.30;99.90
33741;DHT22;20065;48.380;10.892;2023-02-19T15:20:31;10.10;99.90
33741;DHT22;20065;48.380;10.892;2023-02-19T15:23:23;10.10;99.90
33741;DHT22;20065;48.380;10.892;2023-02-19T15:26:19;10.10;99.90
33741;DHT22;20065;48.380;10.892;2023-02-19T15:29:13;10.10;99.90
33741;DHT22;20065;48.380;10.892;2023-02-19T15:32:00;10.00;99.90
33741;DHT22;20065;48.380;10.892;2023-02-19T15:34:55;10.00;99.90
33741;DHT22;20065;48.380;10.892;2023-02-19T15:37:41;10.00;99.90
33741;DHT22;20065;48.380;10.892;2023-02-19T15:40:30;10.00;99.90
33741;DHT22;20065;48.380;10.892;2023-02-19T15:43:24;10.00;99.90
33741;DHT22;20065;48.380;10.892;2023-02-19T15:46:19;10.10;99.90
33741;DHT22;20065;48.380;10.892;2023-02-19T15:49:16;10.30;99.90
33741;DHT22;20065;48.380;10.892;2023-02-19T15:52:09;10.30;99.90
33741;DHT22;20065;48.380;10.892;2023-02-19T15:55:14;10.30;99.90
33741;DHT22;20065;48.380;10.892;2023-02-19T16:04:00;10.10;99.90
33741;DHT22;20065;48.380;10.892;2023-02-19T16:07:01;10.10;99.90
33741;DHT22;20065;48.380;10.892;2023-02-19T16:09:47;10.00;99.90
33741;DHT22;20065;48.380;10.892;2023-02-19T16:12:34;10.00;99.90
33741;DHT22;20065;48.380;10.892;2023-02-19T16:15:20;9.80;99.90
33741;DHT22;20065;48.380;10.892;2023-02-19T16:18:13;9.80;99.90
33741;DHT22;20065;48.380;10.892;2023-02-19T16:21:04;9.80;99.90
33741;DHT22;20065;48.380;10.892;2023-02-19T16:24:15;9.70;99.90
33741;DHT22;20065;48.380;10.892;2023-02-19T16:27:04;9.70;99.90
33741;DHT22;20065;48.380;10.892;2023-02-19T16:29:52;9.60;99.90
33741;DHT22;20065;48.380;10.892;2023-02-19T16:32:38;9.70;99.90
33741;DHT22;20065;48.380;10.892;2023-02-19T16:35:37;9.60;99.90
33741;DHT22;20065;48.380;10.892;2023-02-19T16:38:24;9.50;99.90
33741;DHT22;20065;48.380;10.892;2023-02-19T16:41:12;9.50;99.90
33741;DHT22;20065;48.380;10.892;2023-02-19T16:47:22;9.50;99.90
33741;DHT22;20065;48.380;10.892;2023-02-19T16:50:13;9.50;99.90
33741;DHT22;20065;48.380;10.892;2023-02-19T16:53:02;9.50;99.90
33741;DHT22;20065;48.380;10.892;2023-02-19T16:55:48;9.50;99.90
33741;DHT22;20065;48.380;10.892;2023-02-19T16:58:38;9.50;99.90
33741;DHT22;20065;48.380;10.892;2023-02-19T17:01:25;9.40;99.90
33741;DHT22;20065;48.380;10.892;2023-02-19T17:04:23;9.40;99.90
33741;DHT22;20065;48.380;10.892;2023-02-19T17:07:16;9.50;99.90
33741;DHT22;20065;48.380;10.892;2023-02-19T17:10:03;9.40;99.90
33741;DHT22;20065;48.380;10.892;2023-02-19T17:12:53;9.40;99.90
33741;DHT22;20065;48.380;10.892;2023-02-19T17:15:39;9.40;99.90
33741;DHT22;20065;48.380;10.892;2023-02-19T17:18:26;9.50;99.90
33741;DHT22;20065;48.380;10.892;2023-02-19T17:21:20;9.50;99.90
33741;DHT22;20065;48.380;10.892;2023-02-19T17:24:13;9.60;99.90
33741;DHT22;20065;48.380;10.892;2023-02-19T17:27:00;9.60;99.90
33741;DHT22;20065;48.380;10.892;2023-02-19T17:29:46;9.40;99.90
33741;DHT22;20065;48.380;10.892;2023-02-19T17:32:32;9.30;99.90
33741;DHT22;20065;48.380;10.892;2023-02-19T17:35:18;9.20;99.90
33741;DHT22;20065;48.380;10.892;2023-02-19T17:38:12;9.10;99.90
33741;DHT22;20065;48.380;10.892;2023-02-19T17:40:58;9.20;99.90
33741;DHT22;20065;48.380;10.892;2023-02-19T17:43:44;9.20;99.90
33741;DHT22;20065;48.380;10.892;2023-02-19T17:46:32;9.30;99.90
33741;DHT22;20065;48.380;10.892;2023-02-19T17:49:19;9.20;99.90
33741;DHT22;20065;48.380;10.892;2023-02-19T17:52:05;9.10;99.90
33741;DHT22;20065;48.380;10.892;2023-02-19T17:54:52;9.00;99.90
33741;DHT22;20065;48.380;10.892;2023-02-19T17:57:38;9.00;99.90
33741;DHT22;20065;48.380;10.892;2023-02-19T18:00:27;9.10;99.90
33741;DHT22;20065;48.380;10.892;2023-02-19T18:03:13;9.00;99.90
33741;DHT22;20065;48.380;10.892;2023-02-19T18:06:00;9.00;99.90
33741;DHT22;20065;48.380;10.892;2023-02-19T18:08:47;8.90;99.90
33741;DHT22;20065;48.380;10.892;2023-02-19T18:11:34;8.90;99.90
33741;DHT22;20065;48.380;10.892;2023-02-19T18:14:20;8.90;99.90
33741;DHT22;20065;48.380;10.892;2023-02-19T18:17:06;8.90;99.90
33741;DHT22;20065;48.380;10.892;2023-02-19T18:19:53;8.80;99.90
33741;DHT22;20065;48.380;10.892;2023-02-19T18:22:40;8.60;99.90
33741;DHT22;20065;48.380;10.892;2023-02-19T18:25:27;8.90;99.90
33741;DHT22;20065;48.380;10.892;2023-02-19T18:28:14;8.90;99.90
33741;DHT22;20065;48.380;10.892;2023-02-19T18:31:01;8.90;99.90
33741;DHT22;20065;48.380;10.892;2023-02-19T18:33:48;8.90;99.90
33741;DHT22;20065;48.380;10.892;2023-02-19T18:36:34;8.80;99.90
33741;DHT22;20065;48.380;10.892;2023-02-19T18:39:20;8.80;99.90
33741;DHT22;20065;48.380;10.892;2023-02-19T18:42:07;8.70;99.90
33741;DHT22;20065;48.380;10.892;2023-02-19T18:44:55;8.70;99.90
33741;DHT22;20065;48.380;10.892;2023-02-19T18:47:48;8.80;99.90
33741;DHT22;20065;48.380;10.892;2023-02-19T18:50:36;8.70;99.90
33741;DHT22;20065;48.380;10.892;2023-02-19T18:53:22;8.70;99.90
33741;DHT22;20065;48.380;10.892;2023-02-19T18:56:08;8.70;99.90
33741;DHT22;20065;48.380;10.892;2023-02-19T18:58:55;8.70;99.90
33741;DHT22;20065;48.380;10.892;2023-02-19T19:01:42;8.70;99.90
33741;DHT22;20065;48.380;10.892;2023-02-19T19:04:28;8.60;99.90
33741;DHT22;20065;48.380;10.892;2023-02-19T19:07:15;8.60;99.90
33741;DHT22;20065;48.380;10.892;2023-02-19T19:10:01;8.50;99.90
33741;DHT22;20065;48.380;10.892;2023-02-19T19:12:48;8.50;99.90
33741;DHT22;20065;48.380;10.892;2023-02-19T19:15:34;8.50;99.90
33741;DHT22;20065;48.380;10.892;2023-02-19T19:18:20;8.50;99.90
33741;DHT22;20065;48.380;10.892;2023-02-19T19:21:06;8.50;99.90
33741;DHT22;20065;48.380;10.892;2023-02-19T19:23:54;8.50;99.90
33741;DHT22;20065;48.380;10.892;2023-02-19T19:26:44;8.50;99.90
33741;DHT22;20065;48.380;10.892;2023-02-19T19:29:31;8.40;99.90
33741;DHT22;20065;48.380;10.892;2023-02-19T19:32:17;8.50;99.90
33741;DHT22;20065;48.380;10.892;2023-02-19T19:35:04;8.50;99.90
33741;DHT22;20065;48.380;10.892;2023-02-19T19:37:50;8.40;99.90
33741;DHT22;20065;48.380;10.892;2023-02-19T19:40:39;8.40;99.90
33741;DHT22;20065;48.380;10.892;2023-02-19T19:43:32;8.40;99.90
33741;DHT22;20065;48.380;10.892;2023-02-19T19:46:18;8.40;99.90
33741;DHT22;20065;48.380;10.892;2023-02-19T19:49:05;8.30;99.90
33741;DHT22;20065;48.380;10.892;2023-02-19T19:51:52;8.30;99.90
33741;DHT22;20065;48.380;10.892;2023-02-19T19:54:42;8.30;99.90
33741;DHT22;20065;48.380;10.892;2023-02-19T19:57:28;8.30;99.90
33741;DHT22;20065;48.380;10.892;2023-02-19T20:00:16;8.30;99.90
33741;DHT22;20065;48.380;10.892;2023-02-19T20:03:03;8.30;99.90
33741;DHT22;20065;48.380;10.892;2023-02-19T20:05:50;8.30;99.90
33741;DHT22;20065;48.380;10.892;2023-02-19T20:08:36;8.30;99.90